Time;durP1;ratioP1;P1;durP2;ratioP2;P2;SDS_P1;SDS_P2;PMS_P1;PMS_P2;Temp;Humidity;BMP_temperature;BMP_pressure;BME280_temperature;BME280_humidity;BME280_pressure;Samples;Min_cycle;Max_cycle;Signal;HPM_P1;HPM_P2
2023/08/07 00:00:22;;;;;;;2.10;1.60;;;14.40;99.90;;;;;;5018816;28;20361;-93
2023/08/07 00:02:49;;;;;;;3.57;1.80;;;14.40;99.90;;;;;;5019754;28;20211;-94
2023/08/07 00:05:17;;;;;;;2.87;2.00;;;14.40;99.90;;;;;;5019266;28;20228;-93
2023/08/07 00:07:43;;;;;;;2.00;1.50;;;14.30;99.90;;;;;;5018386;28;20287;-94
2023/08/07 00:10:11;;;;;;;3.27;2.00;;;14.30;99.90;;;;;;5018457;28;20204;-94
2023/08/07 00:12:38;;;;;;;4.47;2.00;;;14.30;99.90;;;;;;5018707;28;20270;-95
2023/08/07 00:15:07;;;;;;;3.77;1.90;;;14.30;99.90;;;;;;5018679;28;20270;-95
2023/08/07 00:17:34;;;;;;;3.97;1.80;;;14.30;99.90;;;;;;5018513;28;20197;-95
2023/08/07 00:20:01;;;;;;;1.90;1.60;;;14.30;97.60;;;;;;5018130;28;20220;-94
2023/08/07 00:22:28;;;;;;;2.67;1.83;;;14.30;57.60;;;;;;5018134;28;20201;-94
2023/08/07 00:24:55;;;;;;;4.03;1.90;;;14.30;82.10;;;;;;5018826;28;20195;-93
2023/08/07 00:27:21;;;;;;;3.20;1.70;;;14.30;59.40;;;;;;5018422;28;20208;-95
2023/08/07 00:29:48;;;;;;;2.17;1.70;;;14.30;66.70;;;;;;5018286;28;20205;-95
2023/08/07 00:32:16;;;;;;;2.23;1.70;;;14.30;76.70;;;;;;5018532;28;20284;-94
2023/08/07 00:34:43;;;;;;;4.07;2.23;;;14.30;47.70;;;;;;5017812;28;20211;-95
2023/08/07 00:37:10;;;;;;;3.60;1.80;;;14.30;51.60;;;;;;5018531;28;20213;-94
2023/08/07 00:39:37;;;;;;;3.73;1.80;;;14.30;49.50;;;;;;5025289;28;20711;-95
2023/08/07 00:42:04;;;;;;;1.90;1.60;;;14.30;28.20;;;;;;5034663;28;20205;-94
2023/08/07 00:44:31;;;;;;;4.00;1.80;;;14.30;29.20;;;;;;5018329;28;20275;-94
2023/08/07 00:46:58;;;;;;;2.57;1.60;;;14.30;38.70;;;;;;5018009;28;20564;-93
2023/08/07 00:49:26;;;;;;;4.60;1.70;;;14.20;3.90;;;;;;5018572;28;20211;-93
2023/08/07 00:51:55;;;;;;;2.17;1.70;;;14.20;9.70;;;;;;5017907;28;20263;-92
2023/08/07 00:54:22;;;;;;;1.93;1.60;;;14.20;6.30;;;;;;5017763;28;20199;-92
2023/08/07 00:56:50;;;;;;;4.73;1.83;;;14.20;3.60;;;;;;5018189;28;20208;-93
2023/08/07 00:59:17;;;;;;;4.00;1.60;;;14.20;1.00;;;;;;5017888;28;20276;-94
2023/08/07 01:01:44;;;;;;;1.93;1.53;;;14.10;1.00;;;;;;5017913;28;20204;-94
2023/08/07 01:04:11;;;;;;;3.60;1.80;;;14.20;1.00;;;;;;5017565;28;20194;-94
2023/08/07 01:06:39;;;;;;;2.20;1.70;;;14.10;1.00;;;;;;5017616;28;20289;-95
2023/08/07 01:09:06;;;;;;;3.13;1.50;;;14.10;1.00;;;;;;5017252;28;20194;-94
2023/08/07 01:11:40;;;;;;;3.50;1.70;;;14.10;1.00;;;;;;5005713;28;20262;-94
2023/08/07 01:14:14;;;;;;;3.00;1.40;;;14.00;1.00;;;;;;5018020;28;20201;-95
2023/08/07 01:16:46;;;;;;;3.73;1.83;;;14.00;1.00;;;;;;5018084;28;20625;-94
2023/08/07 01:19:20;;;;;;;2.00;1.67;;;14.00;1.00;;;;;;5017154;28;20218;-95
2023/08/07 01:21:50;;;;;;;2.73;1.60;;;14.00;1.00;;;;;;5017693;28;20224;-93
2023/08/07 01:24:17;;;;;;;2.07;1.57;;;14.00;1.00;;;;;;5017455;28;20280;-93
2023/08/07 01:26:46;;;;;;;3.50;1.60;;;14.00;1.00;;;;;;5017304;28;20630;-94
2023/08/07 01:29:21;;;;;;;3.00;1.60;;;14.00;1.00;;;;;;5016941;28;20193;-95
2023/08/07 01:31:52;;;;;;;3.07;1.60;;;14.00;1.00;;;;;;5017258;28;20207;-95
2023/08/07 01:34:22;;;;;;;2.63;1.40;;;14.00;1.00;;;;;;5016928;28;20208;-94
2023/08/07 01:36:52;;;;;;;2.83;1.60;;;14.00;1.00;;;;;;5016642;28;20681;-93
2023/08/07 01:39:20;;;;;;;4.60;1.70;;;13.90;1.00;;;;;;5017617;28;20216;-94
2023/08/07 01:41:48;;;;;;;4.50;1.70;;;13.90;1.00;;;;;;5017384;28;20203;-94
2023/08/07 01:44:15;;;;;;;3.87;1.60;;;13.90;1.00;;;;;;5016971;28;20206;-94
2023/08/07 01:46:41;;;;;;;3.27;1.70;;;13.90;1.00;;;;;;5013810;28;20630;-95
2023/08/07 01:49:08;;;;;;;2.43;1.50;;;13.90;1.00;;;;;;5008639;28;20207;-94
2023/08/07 01:51:35;;;;;;;3.23;1.60;;;13.80;1.00;;;;;;5016808;28;20233;-93
2023/08/07 01:54:03;;;;;;;3.87;1.50;;;13.80;1.00;;;;;;5018705;28;20556;-95
2023/08/07 01:56:30;;;;;;;4.57;1.40;;;13.80;1.00;;;;;;5018039;28;20685;-95
2023/08/07 01:58:57;;;;;;;5.03;1.60;;;13.80;1.00;;;;;;5016692;28;20217;-95
2023/08/07 02:01:24;;;;;;;4.50;1.60;;;13.80;1.00;;;;;;5016339;28;20198;-95
2023/08/07 02:03:51;;;;;;;2.87;1.53;;;13.80;1.00;;;;;;5025493;28;20759;-94
2023/08/07 02:06:17;;;;;;;2.37;1.60;;;13.80;1.00;;;;;;5031278;28;20261;-93
2023/08/07 02:08:44;;;;;;;2.57;1.70;;;13.70;1.00;;;;;;5016902;28;20190;-94
2023/08/07 02:11:12;;;;;;;3.10;1.73;;;13.80;1.00;;;;;;5016170;28;20200;-95
2023/08/07 02:13:39;;;;;;;4.13;1.60;;;13.80;1.00;;;;;;5016201;28;20225;-94
2023/08/07 02:16:06;;;;;;;2.00;1.60;;;13.80;1.00;;;;;;5016198;28;20224;-93
2023/08/07 02:18:33;;;;;;;2.00;1.40;;;13.70;1.00;;;;;;5016051;28;20202;-95
2023/08/07 02:21:00;;;;;;;2.30;1.63;;;13.70;1.00;;;;;;5016137;28;20293;-95
2023/08/07 02:23:28;;;;;;;2.23;1.47;;;13.70;1.00;;;;;;5015979;28;20564;-94
2023/08/07 02:25:54;;;;;;;6.10;1.63;;;13.70;1.00;;;;;;5016179;28;20229;-95
2023/08/07 02:28:23;;;;;;;1.63;1.43;;;13.70;1.00;;;;;;5016284;28;20199;-95
2023/08/07 02:30:51;;;;;;;2.07;1.70;;;13.60;1.00;;;;;;5016121;28;20201;-95
2023/08/07 02:33:18;;;;;;;2.40;1.47;;;13.60;1.00;;;;;;5015672;28;20194;-94
2023/08/07 02:35:45;;;;;;;3.57;1.60;;;13.60;1.00;;;;;;5016061;28;20581;-94
2023/08/07 02:38:12;;;;;;;2.97;1.50;;;13.60;1.00;;;;;;5036071;28;20207;-95
2023/08/07 02:40:39;;;;;;;2.00;1.60;;;13.50;1.00;;;;;;5035864;28;20760;-95
2023/08/07 02:43:05;;;;;;;4.60;1.60;;;13.50;1.00;;;;;;5024676;28;20627;-95
2023/08/07 02:45:35;;;;;;;3.00;1.40;;;13.50;1.00;;;;;;5021894;28;20217;-93
2023/08/07 02:48:02;;;;;;;2.70;1.60;;;13.50;1.00;;;;;;5023308;28;20201;-94
2023/08/07 02:50:32;;;;;;;1.87;1.40;;;13.50;1.00;;;;;;5015491;28;20252;-94
2023/08/07 02:52:59;;;;;;;3.77;1.60;;;13.50;1.00;;;;;;5015928;28;20283;-94
2023/08/07 02:55:25;;;;;;;4.23;1.83;;;13.50;1.00;;;;;;5016333;28;20214;-95
2023/08/07 02:57:52;;;;;;;1.67;1.40;;;13.50;1.00;;;;;;5011210;28;20284;-95
2023/08/07 03:00:19;;;;;;;3.07;1.60;;;13.50;1.00;;;;;;5005893;28;20213;-94
2023/08/07 03:02:48;;;;;;;1.73;1.43;;;13.50;1.00;;;;;;5015934;28;20198;-94
2023/08/07 03:05:15;;;;;;;3.93;1.60;;;13.50;1.00;;;;;;5012217;28;20228;-95
2023/08/07 03:07:42;;;;;;;2.87;1.60;;;13.50;1.00;;;;;;5016268;28;20591;-94
2023/08/07 03:10:09;;;;;;;3.23;2.00;;;13.50;1.00;;;;;;5015598;28;20744;-95
2023/08/07 03:12:37;;;;;;;1.80;1.43;;;13.50;1.00;;;;;;5016399;28;20205;-94
2023/08/07 03:15:04;;;;;;;2.97;1.67;;;13.50;1.00;;;;;;5015827;28;20201;-95
2023/08/07 03:17:31;;;;;;;3.83;1.63;;;13.60;1.00;;;;;;5015243;28;20281;-95
2023/08/07 03:19:59;;;;;;;4.30;1.53;;;13.60;1.00;;;;;;5033892;28;20224;-93
2023/08/07 03:22:26;;;;;;;2.90;1.80;;;13.60;1.00;;;;;;5022163;28;20279;-93
2023/08/07 03:24:53;;;;;;;4.00;1.70;;;13.60;1.00;;;;;;5015203;28;20217;-96
2023/08/07 03:27:20;;;;;;;2.37;1.60;;;13.60;1.00;;;;;;5015343;28;20212;-94
2023/08/07 03:29:46;;;;;;;2.80;2.07;;;13.60;1.00;;;;;;5015707;28;20197;-95
2023/08/07 03:32:13;;;;;;;2.57;1.77;;;13.70;1.00;;;;;;5015700;28;20205;-95
2023/08/07 03:34:40;;;;;;;2.47;1.60;;;13.70;1.00;;;;;;5034759;28;20283;-95
2023/08/07 03:37:08;;;;;;;2.17;1.70;;;13.70;1.00;;;;;;5039420;28;20207;-94
2023/08/07 03:39:35;;;;;;;3.23;1.80;;;13.70;1.00;;;;;;5034015;28;20759;-95
2023/08/07 03:42:02;;;;;;;2.27;1.53;;;13.70;1.00;;;;;;5021320;28;20300;-94
2023/08/07 03:44:29;;;;;;;2.60;2.00;;;13.80;1.00;;;;;;5020716;28;20563;-94
2023/08/07 03:46:57;;;;;;;5.00;1.90;;;13.80;1.00;;;;;;5019155;28;20198;-94
2023/08/07 03:49:24;;;;;;;2.93;1.80;;;13.80;1.00;;;;;;5019260;28;20212;-95
2023/08/07 03:51:51;;;;;;;2.30;1.80;;;13.80;1.00;;;;;;5018492;28;20271;-95
2023/08/07 03:54:19;;;;;;;2.60;1.80;;;13.80;1.00;;;;;;5019339;28;20292;-94
2023/08/07 03:56:46;;;;;;;4.50;1.97;;;13.80;1.00;;;;;;5018922;28;20209;-94
2023/08/07 03:59:13;;;;;;;2.83;1.70;;;13.80;3.90;;;;;;5018336;28;20197;-93
2023/08/07 04:01:40;;;;;;;3.30;1.80;;;13.80;7.30;;;;;;5019072;28;20560;-93
2023/08/07 04:04:07;;;;;;;2.67;1.80;;;13.80;13.90;;;;;;5018765;28;20193;-95
2023/08/07 04:06:34;;;;;;;2.70;1.70;;;13.80;12.10;;;;;;5018782;28;20672;-95
2023/08/07 04:09:01;;;;;;;2.37;2.03;;;13.80;5.40;;;;;;5017687;28;20202;-94
2023/08/07 04:11:29;;;;;;;4.27;1.63;;;13.80;5.80;;;;;;5019213;28;20221;-93
2023/08/07 04:13:56;;;;;;;4.87;2.20;;;13.80;14.80;;;;;;5020554;28;20206;-94
2023/08/07 04:16:23;;;;;;;5.43;2.00;;;13.80;19.80;;;;;;5017958;28;20264;-93
2023/08/07 04:18:49;;;;;;;3.97;1.87;;;13.90;35.50;;;;;;5009445;28;20300;-92
2023/08/07 04:21:16;;;;;;;2.47;1.80;;;13.90;64.60;;;;;;5018115;28;20281;-92
2023/08/07 04:23:43;;;;;;;3.70;1.87;;;14.00;99.90;;;;;;5018399;28;20552;-93
2023/08/07 04:26:10;;;;;;;2.20;1.87;;;14.20;99.90;;;;;;5018492;28;20284;-94
2023/08/07 04:28:38;;;;;;;2.47;1.90;;;14.40;84.00;;;;;;5018537;28;20203;-93
2023/08/07 04:31:05;;;;;;;2.90;1.87;;;14.60;8.40;;;;;;5027483;28;20289;-93
2023/08/07 04:33:32;;;;;;;3.20;2.20;;;14.70;1.00;;;;;;5024122;28;20260;-94
2023/08/07 04:35:59;;;;;;;3.57;1.83;;;14.80;1.00;;;;;;5029809;28;20195;-95
2023/08/07 04:38:26;;;;;;;2.67;2.10;;;14.90;1.00;;;;;;5018356;28;20285;-94
2023/08/07 04:40:53;;;;;;;4.90;2.20;;;14.90;1.00;;;;;;5017750;28;20213;-94
2023/08/07 04:43:20;;;;;;;7.07;2.10;;;14.80;1.00;;;;;;5017333;28;20259;-94
2023/08/07 04:45:49;;;;;;;2.77;2.00;;;14.70;1.00;;;;;;5018166;28;20646;-92
2023/08/07 04:48:17;;;;;;;5.07;2.27;;;14.70;1.00;;;;;;5007318;28;20212;-93
2023/08/07 04:50:44;;;;;;;4.67;2.30;;;14.70;1.00;;;;;;5013802;28;20283;-92
2023/08/07 04:53:11;;;;;;;4.33;2.30;;;14.70;1.00;;;;;;5018219;28;20202;-94
2023/08/07 04:55:37;;;;;;;3.50;2.20;;;14.70;1.00;;;;;;5018015;28;20207;-93
2023/08/07 04:58:05;;;;;;;3.57;2.60;;;14.80;1.00;;;;;;5018091;28;20189;-93
2023/08/07 05:00:32;;;;;;;4.23;2.00;;;14.80;1.00;;;;;;5017710;28;20637;-93
2023/08/07 05:03:01;;;;;;;3.00;2.00;;;14.70;1.00;;;;;;5017762;28;20208;-93
2023/08/07 05:05:28;;;;;;;3.17;2.37;;;14.70;1.00;;;;;;5011253;28;20999;-94
2023/08/07 05:07:56;;;;;;;3.67;2.10;;;14.70;1.00;;;;;;5005096;28;20208;-93
2023/08/07 05:10:23;;;;;;;3.37;2.03;;;14.70;1.00;;;;;;5017629;28;20199;-93
2023/08/07 05:12:54;;;;;;;4.10;2.13;;;14.80;1.00;;;;;;5017452;28;20274;-94
2023/08/07 05:15:21;;;;;;;3.93;2.43;;;15.00;1.00;;;;;;5017937;28;20193;-94
2023/08/07 05:17:48;;;;;;;4.25;2.50;;;15.10;1.00;;;;;;5017800;28;20218;-94
2023/08/07 05:20:16;;;;;;;2.55;2.00;;;15.30;1.00;;;;;;5017510;28;20222;-93
2023/08/07 05:22:43;;;;;;;2.78;2.17;;;15.30;1.00;;;;;;5019551;28;20274;-96
2023/08/07 05:25:12;;;;;;;2.70;2.08;;;15.40;1.00;;;;;;5020138;28;20275;-95
2023/08/07 05:27:39;;;;;;;2.80;1.83;;;15.50;1.00;;;;;;5021746;28;20257;-95
2023/08/07 05:30:07;;;;;;;3.88;2.10;;;15.60;1.00;;;;;;5023511;28;20205;-96
2023/08/07 05:32:37;;;;;;;2.75;1.92;;;15.80;1.00;;;;;;5042054;28;20226;-96
2023/08/07 05:35:04;;;;;;;3.53;2.10;;;15.90;1.00;;;;;;5021978;28;20198;-95
2023/08/07 05:37:33;;;;;;;5.53;2.38;;;16.00;1.00;;;;;;5024481;28;20235;-95
2023/08/07 05:40:00;;;;;;;4.47;2.20;;;16.10;1.00;;;;;;5023512;28;20262;-96
2023/08/07 05:42:27;;;;;;;7.88;2.50;;;16.10;1.00;;;;;;5023687;28;20315;-95
2023/08/07 05:44:54;;;;;;;47.13;20.20;;;16.00;1.00;;;;;;5020771;28;20189;-96
2023/08/07 05:47:21;;;;;;;4.45;2.75;;;16.00;1.00;;;;;;5019354;28;20362;-95
2023/08/07 05:49:47;;;;;;;5.72;2.30;;;16.10;1.00;;;;;;5027084;28;20207;-95
2023/08/07 05:52:15;;;;;;;3.05;2.20;;;16.20;1.00;;;;;;5019107;28;20231;-94
2023/08/07 05:54:43;;;;;;;14.65;5.97;;;16.20;1.00;;;;;;5017981;28;20261;-96
2023/08/07 05:57:11;;;;;;;4.68;2.53;;;16.30;1.00;;;;;;5018155;28;20677;-95
2023/08/07 05:59:40;;;;;;;16.13;6.95;;;16.30;99.90;;;;;;5017355;28;20283;-94
2023/08/07 06:02:07;;;;;;;5.63;2.90;;;16.40;99.90;;;;;;5016885;28;20210;-95
2023/08/07 06:04:34;;;;;;;3.15;2.50;;;16.40;99.90;;;;;;5014665;28;20681;-95
2023/08/07 06:07:01;;;;;;;15.20;7.10;;;16.50;99.90;;;;;;5016152;28;20281;-94
2023/08/07 06:09:28;;;;;;;10.35;5.68;;;16.60;99.90;;;;;;5017413;28;20646;-95
2023/08/07 06:11:56;;;;;;;51.97;21.85;;;16.80;99.90;;;;;;5017217;28;20198;-95
2023/08/07 06:14:25;;;;;;;10.90;5.55;;;17.00;99.90;;;;;;5009117;28;20229;-96
2023/08/07 06:16:52;;;;;;;23.88;10.30;;;17.30;99.90;;;;;;5018785;28;20194;-96
2023/08/07 06:19:19;;;;;;;4.25;2.97;;;17.50;99.90;;;;;;5010231;28;20235;-96
2023/08/07 06:21:46;;;;;;;7.55;2.80;;;17.70;99.90;;;;;;5023044;28;20249;-96
2023/08/07 06:24:13;;;;;;;3.58;2.70;;;18.00;99.90;;;;;;5023872;28;20196;-96
2023/08/07 06:26:43;;;;;;;5.03;3.05;;;18.10;99.90;;;;;;5025280;28;20261;-96
2023/08/07 06:29:11;;;;;;;5.00;3.10;;;18.20;16.00;;;;;;5024963;28;20207;-96
2023/08/07 06:31:38;;;;;;;6.65;3.40;;;18.30;1.00;;;;;;5022535;28;20293;-96
2023/08/07 06:34:05;;;;;;;4.25;2.97;;;18.30;1.00;;;;;;5023884;28;20190;-96
2023/08/07 06:36:32;;;;;;;7.82;3.20;;;18.40;1.00;;;;;;5026715;28;20615;-95
2023/08/07 06:39:03;;;;;;;19.67;8.70;;;18.50;1.00;;;;;;5030287;28;20201;-96
2023/08/07 06:41:30;;;;;;;7.32;4.03;;;18.70;1.00;;;;;;5026179;28;20229;-96
2023/08/07 06:43:57;;;;;;;5.80;3.30;;;18.80;1.00;;;;;;5029126;28;20253;-96
2023/08/07 06:46:30;;;;;;;22.20;10.23;;;18.90;1.00;;;;;;5030208;28;20256;-96
2023/08/07 06:48:57;;;;;;;8.45;4.10;;;19.10;99.90;;;;;;5029533;28;20229;-96
2023/08/07 06:51:24;;;;;;;22.92;11.05;;;19.10;1.00;;;;;;5022308;28;20262;-96
2023/08/07 06:53:53;;;;;;;14.75;7.38;;;18.90;1.00;;;;;;5019595;28;20582;-96
2023/08/07 06:56:24;;;;;;;20.90;9.27;;;18.70;1.00;;;;;;5023386;28;20226;-96
2023/08/07 06:58:52;;;;;;;8.07;4.35;;;18.60;1.00;;;;;;5023788;28;20200;-96
2023/08/07 07:01:19;;;;;;;28.63;14.18;;;18.50;1.00;;;;;;5025017;28;20241;-96
2023/08/07 07:03:52;;;;;;;5.03;3.05;;;18.60;99.90;;;;;;5023009;28;20244;-96
2023/08/07 07:06:20;;;;;;;6.57;4.13;;;18.80;1.00;;;;;;5014456;28;20197;-96
2023/08/07 07:08:47;;;;;;;5.03;2.67;;;19.00;99.90;;;;;;5013361;28;20214;-96
2023/08/07 07:11:15;;;;;;;4.03;2.92;;;19.10;1.00;;;;;;5006786;28;20201;-96
2023/08/07 07:13:42;;;;;;;12.57;7.68;;;19.10;47.10;;;;;;5013520;28;20206;-96
2023/08/07 07:16:11;;;;;;;11.50;5.75;;;19.20;1.00;;;;;;5023832;28;20212;-96
2023/08/07 07:18:37;;;;;;;5.90;2.58;;;19.10;1.00;;;;;;5022884;28;20202;-96
2023/08/07 07:21:06;;;;;;;6.03;3.88;;;19.10;98.30;;;;;;5023813;28;20210;-96
2023/08/07 07:23:33;;;;;;;3.92;2.65;;;19.40;1.00;;;;;;5021936;28;20210;-96
2023/08/07 07:26:00;;;;;;;5.53;3.67;;;19.60;1.00;;;;;;5021640;28;20297;-96
2023/08/07 07:28:27;;;;;;;5.07;2.65;;;19.60;99.90;;;;;;5015616;28;20206;-96
2023/08/07 07:30:59;;;;;;;6.43;3.17;;;19.70;21.30;;;;;;5024752;28;20199;-96
2023/08/07 07:33:26;;;;;;;3.70;2.70;;;19.90;99.90;;;;;;5015341;28;20202;-96
2023/08/07 07:35:53;;;;;;;5.88;3.10;;;20.00;99.90;;;;;;5023557;28;20198;-96
2023/08/07 07:38:22;;;;;;;5.05;2.30;;;20.20;99.90;;;;;;5019874;28;20334;-96
2023/08/07 07:40:48;;;;;;;4.70;2.75;;;20.40;1.00;;;;;;5019901;28;20218;-96
2023/08/07 07:43:15;;;;;;;3.00;2.17;;;20.60;1.00;;;;;;5019503;28;20210;-96
2023/08/07 07:45:42;;;;;;;2.60;2.08;;;20.70;99.90;;;;;;5021428;28;20206;-95
2023/08/07 07:48:09;;;;;;;3.75;2.42;;;20.90;1.00;;;;;;5022114;28;20289;-96
2023/08/07 07:50:36;;;;;;;3.95;1.90;;;20.90;99.90;;;;;;5022130;28;20313;-96
2023/08/07 07:53:03;;;;;;;2.70;2.00;;;20.80;99.90;;;;;;5007768;28;20234;-96
2023/08/07 07:55:32;;;;;;;4.45;2.00;;;20.80;1.00;;;;;;5008596;28;20203;-95
2023/08/07 07:57:58;;;;;;;3.63;1.88;;;20.80;99.90;;;;;;5005634;28;20203;-96
2023/08/07 08:00:26;;;;;;;4.18;1.90;;;20.60;1.00;;;;;;5017745;28;20199;-96
2023/08/07 08:02:54;;;;;;;4.63;2.00;;;20.50;1.00;;;;;;5011802;28;20205;-96
2023/08/07 08:05:21;;;;;;;2.05;1.85;;;20.50;99.90;;;;;;5019388;28;20202;-96
2023/08/07 08:07:48;;;;;;;3.78;2.03;;;20.70;99.90;;;;;;5022068;28;20218;-96
2023/08/07 08:10:15;;;;;;;4.32;2.20;;;21.00;1.00;;;;;;5021202;28;20198;-96
2023/08/07 08:12:43;;;;;;;2.97;2.25;;;21.20;1.00;;;;;;5019942;28;20226;-96
2023/08/07 08:15:10;;;;;;;2.85;1.58;;;21.50;1.00;;;;;;5002431;28;20237;-96
2023/08/07 08:17:37;;;;;;;2.88;1.77;;;21.70;1.00;;;;;;5017449;28;20230;-94
2023/08/07 08:20:05;;;;;;;8.27;1.67;;;22.00;99.90;;;;;;5018491;28;20293;-96
2023/08/07 08:22:33;;;;;;;3.17;1.70;;;22.10;99.90;;;;;;5022137;28;20218;-95
2023/08/07 08:25:00;;;;;;;4.20;1.83;;;22.00;1.00;;;;;;5028195;28;20239;-95
2023/08/07 08:27:26;;;;;;;3.90;2.20;;;22.00;92.30;;;;;;5024284;28;20697;-96
2023/08/07 08:29:55;;;;;;;5.10;1.70;;;22.00;1.00;;;;;;5019268;28;20244;-96
2023/08/07 08:32:21;;;;;;;4.18;2.20;;;21.90;1.00;;;;;;5019852;28;20285;-96
2023/08/07 08:34:49;;;;;;;11.55;6.10;;;21.90;1.00;;;;;;5035098;28;20203;-96
2023/08/07 08:37:18;;;;;;;4.20;2.40;;;21.90;1.00;;;;;;5026222;28;20226;-96
2023/08/07 08:39:44;;;;;;;1.75;1.63;;;21.90;1.00;;;;;;5022552;28;20265;-95
2023/08/07 08:42:13;;;;;;;4.13;1.50;;;22.00;99.90;;;;;;5022750;28;20216;-96
2023/08/07 08:44:41;;;;;;;3.05;1.50;;;22.00;99.90;;;;;;5021154;28;20196;-96
2023/08/07 08:47:11;;;;;;;4.93;1.98;;;21.80;99.90;;;;;;5007034;28;20285;-96
2023/08/07 08:49:47;;;;;;;2.00;1.50;;;21.60;99.90;;;;;;5018404;28;20665;-96
2023/08/07 08:52:16;;;;;;;2.58;1.35;;;21.40;99.90;;;;;;5022645;28;20222;-96
2023/08/07 08:54:47;;;;;;;2.15;1.50;;;21.20;44.90;;;;;;5021340;28;20382;-96
2023/08/07 08:57:14;;;;;;;2.72;1.50;;;20.90;99.90;;;;;;5023298;28;20190;-96
2023/08/07 08:59:42;;;;;;;2.88;1.80;;;20.80;99.90;;;;;;5023666;28;20281;-96
2023/08/07 09:02:11;;;;;;;5.10;1.58;;;20.50;99.90;;;;;;5021750;28;20225;-96
2023/08/07 09:04:38;;;;;;;3.13;1.80;;;20.30;99.90;;;;;;5023496;28;20194;-95
2023/08/07 09:07:06;;;;;;;3.47;1.70;;;20.20;1.00;;;;;;5024746;28;20202;-96
2023/08/07 09:09:33;;;;;;;4.90;1.63;;;20.20;1.00;;;;;;5022898;28;20248;-96
2023/08/07 09:12:01;;;;;;;2.05;1.70;;;20.20;1.00;;;;;;5023511;28;20250;-96
2023/08/07 09:14:31;;;;;;;3.80;1.80;;;20.20;99.90;;;;;;5021048;28;20729;-96
2023/08/07 09:17:01;;;;;;;3.20;1.88;;;20.20;1.00;;;;;;5023880;28;20198;-96
2023/08/07 09:19:30;;;;;;;2.33;1.70;;;20.40;99.90;;;;;;5021537;28;20245;-96
2023/08/07 09:21:57;;;;;;;2.83;1.83;;;20.40;1.00;;;;;;5025333;28;20305;-96
2023/08/07 09:24:24;;;;;;;3.05;1.70;;;20.50;1.00;;;;;;5024586;28;20289;-96
